Time;durP1;ratioP1;P1;durP2;ratioP2;P2;SDS_P1;SDS_P2;PMS_P1;PMS_P2;Temp;Humidity;BMP_temperature;BMP_pressure;BME280_temperature;BME280_humidity;BME280_pressure;Samples;Min_cycle;Max_cycle;Signal;HPM_P1;HPM_P2
2022/01/01 00:02:14;;;;;;;21.25;10.60;;;13.00;99.90;;;;;;5094741;28;20172;-50
2022/01/01 00:04:42;;;;;;;21.30;11.30;;;13.00;99.90;;;;;;5094833;28;20205;-48
2022/01/01 00:07:08;;;;;;;19.38;11.02;;;13.00;99.90;;;;;;5095164;28;20209;-48
2022/01/01 00:09:33;;;;;;;19.30;10.80;;;13.00;99.90;;;;;;5094913;28;20169;-50
2022/01/01 00:11:59;;;;;;;21.08;10.27;;;13.00;99.90;;;;;;5094656;28;20228;-48
2022/01/01 00:14:24;;;;;;;15.23;10.15;;;13.00;99.90;;;;;;5095090;28;20188;-62
2022/01/01 00:16:50;;;;;;;21.77;9.77;;;13.00;99.90;;;;;;5076332;28;20165;-52
2022/01/01 00:19:16;;;;;;;16.13;9.82;;;13.00;99.90;;;;;;5094536;28;20180;-49
2022/01/01 00:21:43;;;;;;;21.27;10.75;;;13.00;99.90;;;;;;5094811;28;20204;-51
2022/01/01 00:24:09;;;;;;;17.90;10.07;;;13.00;99.90;;;;;;5094516;28;20268;-55
2022/01/01 00:26:35;;;;;;;18.73;10.85;;;13.00;99.90;;;;;;5094627;28;20676;-57
2022/01/01 00:29:01;;;;;;;21.40;10.07;;;13.00;99.90;;;;;;5094579;28;20577;-52
2022/01/01 00:31:27;;;;;;;22.80;10.93;;;13.00;99.90;;;;;;5094520;28;20176;-55
2022/01/01 00:33:53;;;;;;;22.40;11.70;;;13.00;99.90;;;;;;5094784;28;20165;-54
2022/01/01 00:36:18;;;;;;;20.63;12.48;;;13.00;99.90;;;;;;5094465;28;20162;-54
2022/01/01 00:38:44;;;;;;;28.15;12.73;;;13.00;99.90;;;;;;5094317;28;20647;-53
2022/01/01 00:41:09;;;;;;;23.27;13.07;;;13.00;99.90;;;;;;5094335;28;20197;-59
2022/01/01 00:43:35;;;;;;;25.80;14.10;;;13.00;99.90;;;;;;5094327;28;20166;-53
2022/01/01 00:46:00;;;;;;;23.33;14.10;;;13.10;99.90;;;;;;5093855;28;20205;-51
2022/01/01 00:48:26;;;;;;;24.00;15.57;;;13.10;99.90;;;;;;5094101;28;20165;-49
2022/01/01 00:50:52;;;;;;;31.30;15.30;;;13.10;99.90;;;;;;5094061;28;20176;-49
2022/01/01 00:53:17;;;;;;;24.48;15.88;;;13.10;99.90;;;;;;5094125;28;20163;-51
2022/01/01 00:55:43;;;;;;;28.15;14.52;;;13.10;99.90;;;;;;5093965;28;20221;-50
2022/01/01 00:58:08;;;;;;;24.63;14.25;;;13.10;99.90;;;;;;5094090;28;20174;-48
2022/01/01 01:00:34;;;;;;;21.27;13.40;;;13.10;99.90;;;;;;5093980;28;20165;-50
2022/01/01 01:03:00;;;;;;;19.67;12.07;;;13.10;99.90;;;;;;5093790;28;20599;-62
2022/01/01 01:05:26;;;;;;;23.85;13.27;;;13.10;99.90;;;;;;5094122;28;20284;-59
2022/01/01 01:07:51;;;;;;;21.95;12.40;;;13.10;99.90;;;;;;5093778;28;20161;-62
2022/01/01 01:10:17;;;;;;;20.50;12.63;;;13.10;99.90;;;;;;5092501;28;20269;-62
2022/01/01 01:12:45;;;;;;;21.65;11.95;;;13.10;99.90;;;;;;5093685;28;20205;-56
2022/01/01 01:15:17;;;;;;;21.40;11.27;;;13.10;99.90;;;;;;5093447;28;20169;-48
2022/01/01 01:17:44;;;;;;;25.25;11.73;;;13.10;99.90;;;;;;5093782;28;20171;-48
2022/01/01 01:20:11;;;;;;;18.73;11.30;;;13.10;99.90;;;;;;5093662;28;20350;-50
2022/01/01 01:22:36;;;;;;;16.90;10.75;;;13.10;99.90;;;;;;5093485;28;20165;-48
2022/01/01 01:25:04;;;;;;;21.13;10.77;;;13.10;99.90;;;;;;5093600;28;20291;-51
2022/01/01 01:27:30;;;;;;;18.60;11.32;;;13.10;99.90;;;;;;5093209;28;20181;-51
2022/01/01 01:29:58;;;;;;;21.30;11.35;;;13.10;99.90;;;;;;5093946;28;20530;-50
2022/01/01 01:32:24;;;;;;;23.25;12.15;;;13.10;99.90;;;;;;5093824;28;20200;-50
2022/01/01 01:34:49;;;;;;;22.20;11.50;;;13.10;99.90;;;;;;5093530;28;20165;-56
2022/01/01 01:37:15;;;;;;;21.70;11.40;;;13.10;99.90;;;;;;5093384;28;20661;-63
2022/01/01 01:39:40;;;;;;;21.75;10.25;;;13.00;99.90;;;;;;5093364;28;20188;-58
2022/01/01 01:42:06;;;;;;;21.10;11.48;;;13.00;99.90;;;;;;5093344;28;20651;-60
2022/01/01 01:44:36;;;;;;;19.88;10.25;;;13.10;99.90;;;;;;5093435;28;20205;-60
2022/01/01 01:47:04;;;;;;;14.68;9.50;;;13.00;99.90;;;;;;5093169;28;20174;-64
2022/01/01 01:49:30;;;;;;;20.67;9.98;;;13.00;99.90;;;;;;5093477;28;20165;-64
2022/01/01 01:51:56;;;;;;;20.13;10.20;;;13.00;99.90;;;;;;5093454;28;20169;-58
2022/01/01 01:54:22;;;;;;;23.85;10.15;;;13.00;99.90;;;;;;5075198;28;20234;-61
2022/01/01 01:56:48;;;;;;;18.60;9.35;;;13.00;99.90;;;;;;5093263;28;20609;-61
2022/01/01 01:59:14;;;;;;;15.55;9.38;;;13.00;99.90;;;;;;5093043;28;20176;-59
2022/01/01 02:01:40;;;;;;;23.63;10.20;;;13.00;99.90;;;;;;5092980;28;20222;-63
2022/01/01 02:04:06;;;;;;;16.80;9.53;;;13.00;99.90;;;;;;5093038;28;20538;-63
2022/01/01 02:06:32;;;;;;;20.23;9.68;;;13.00;99.90;;;;;;5092825;28;20250;-64
2022/01/01 02:08:58;;;;;;;18.90;9.68;;;13.00;99.90;;;;;;5092853;28;20537;-58
2022/01/01 02:11:24;;;;;;;18.48;8.98;;;13.00;99.90;;;;;;5092979;28;20228;-54
2022/01/01 02:18:47;;;;;;;18.80;9.35;;;12.90;99.90;;;;;;5092951;28;20197;-60
2022/01/01 02:21:14;;;;;;;17.77;9.10;;;12.90;99.90;;;;;;5092326;28;20226;-57
2022/01/01 02:23:43;;;;;;;15.38;9.00;;;13.00;99.90;;;;;;5092625;28;20165;-57
2022/01/01 02:26:12;;;;;;;21.00;10.27;;;13.00;99.90;;;;;;5092772;28;20209;-55
2022/01/01 02:28:41;;;;;;;24.58;11.15;;;13.00;99.90;;;;;;5092724;28;20550;-57
2022/01/01 02:31:06;;;;;;;22.50;10.82;;;13.00;99.90;;;;;;5092763;28;20176;-59
2022/01/01 02:33:32;;;;;;;17.48;9.57;;;13.00;99.90;;;;;;5092453;28;20161;-60
2022/01/01 02:35:58;;;;;;;23.92;9.80;;;13.00;99.90;;;;;;5092653;28;20260;-58
2022/01/01 02:38:24;;;;;;;18.65;9.27;;;13.00;99.90;;;;;;5092899;28;20173;-56
2022/01/01 02:40:49;;;;;;;18.20;9.55;;;13.00;99.90;;;;;;5092399;28;20165;-53
2022/01/01 02:43:16;;;;;;;18.90;9.93;;;13.00;99.90;;;;;;5092325;28;20169;-54
2022/01/01 02:45:42;;;;;;;14.30;9.57;;;13.00;99.90;;;;;;5092469;28;20205;-55
2022/01/01 02:48:07;;;;;;;17.92;9.15;;;13.00;99.90;;;;;;5074158;28;20178;-58
2022/01/01 02:50:33;;;;;;;20.20;9.32;;;12.90;99.90;;;;;;5092201;28;20165;-59
2022/01/01 02:52:58;;;;;;;19.00;9.30;;;12.90;99.90;;;;;;5092211;28;20165;-59
2022/01/01 02:55:24;;;;;;;18.95;9.57;;;12.90;99.90;;;;;;5092400;28;20539;-54
2022/01/01 02:57:49;;;;;;;15.98;8.93;;;13.00;99.90;;;;;;5092136;28;20165;-62
2022/01/01 03:00:15;;;;;;;17.05;9.65;;;13.00;99.90;;;;;;5092038;28;20234;-53
2022/01/01 03:02:41;;;;;;;15.82;9.45;;;13.00;99.90;;;;;;5092439;28;20176;-60
2022/01/01 03:05:07;;;;;;;14.40;8.20;;;13.00;99.90;;;;;;5092031;28;20220;-49
2022/01/01 03:07:35;;;;;;;17.95;8.18;;;13.00;99.90;;;;;;5091983;28;20504;-49
2022/01/01 03:10:00;;;;;;;18.45;8.93;;;13.00;99.90;;;;;;5092085;28;20179;-48
2022/01/01 03:12:26;;;;;;;17.15;8.90;;;13.00;99.90;;;;;;5092188;28;20205;-50
2022/01/01 03:14:51;;;;;;;18.65;8.63;;;13.00;99.90;;;;;;5091944;28;20656;-50
2022/01/01 03:17:17;;;;;;;15.73;8.35;;;13.00;99.90;;;;;;5092021;28;20644;-52
2022/01/01 03:19:42;;;;;;;17.23;8.23;;;13.00;99.90;;;;;;5091921;28;20635;-55
2022/01/01 03:22:08;;;;;;;13.80;8.05;;;13.00;99.90;;;;;;5091966;28;20575;-52
2022/01/01 03:24:34;;;;;;;16.92;8.32;;;13.00;99.90;;;;;;5091782;28;20246;-52
2022/01/01 03:27:01;;;;;;;15.57;8.98;;;13.00;99.90;;;;;;5092119;28;20173;-51
2022/01/01 03:29:28;;;;;;;19.88;8.93;;;13.00;99.90;;;;;;5092108;28;20165;-51
2022/01/01 03:31:54;;;;;;;17.30;8.88;;;13.00;99.90;;;;;;5092328;28;20177;-52
2022/01/01 03:34:21;;;;;;;12.70;8.13;;;12.90;99.90;;;;;;5093633;28;20153;-52
2022/01/01 03:36:47;;;;;;;12.40;7.60;;;12.90;99.90;;;;;;5095961;28;20184;-48
2022/01/01 03:39:12;;;;;;;22.55;8.88;;;12.90;99.90;;;;;;5095737;28;20562;-50
2022/01/01 03:41:38;;;;;;;11.27;7.43;;;12.90;99.90;;;;;;5095711;28;20173;-49
2022/01/01 03:44:03;;;;;;;14.98;7.68;;;12.90;99.90;;;;;;5095654;28;20162;-48
2022/01/01 03:46:29;;;;;;;13.95;7.68;;;12.90;99.90;;;;;;5095592;28;20649;-47
2022/01/01 03:48:54;;;;;;;20.52;7.65;;;12.90;99.90;;;;;;5095841;28;20244;-50
2022/01/01 03:51:20;;;;;;;12.73;6.78;;;12.90;99.90;;;;;;5095475;28;20663;-48
2022/01/01 03:53:45;;;;;;;18.48;7.15;;;12.90;99.90;;;;;;5095705;28;20169;-48
2022/01/01 03:56:11;;;;;;;12.57;6.53;;;12.90;99.90;;;;;;5095508;28;20166;-48
2022/01/01 03:58:37;;;;;;;17.10;7.07;;;12.90;99.90;;;;;;5095611;28;20180;-50
2022/01/01 04:01:03;;;;;;;13.35;6.53;;;12.90;99.90;;;;;;5095790;28;20169;-49
2022/01/01 04:03:28;;;;;;;14.60;6.10;;;12.80;99.90;;;;;;5095264;28;20528;-51
2022/01/01 04:05:54;;;;;;;14.93;5.32;;;12.80;99.90;;;;;;5095429;28;20700;-48
2022/01/01 04:08:19;;;;;;;15.27;5.82;;;12.80;99.90;;;;;;5095227;28;20206;-52
2022/01/01 04:10:45;;;;;;;8.93;5.20;;;12.80;99.90;;;;;;5094982;28;20357;-50
2022/01/01 04:13:11;;;;;;;13.65;6.18;;;12.90;99.90;;;;;;5095089;28;20196;-48
2022/01/01 04:15:38;;;;;;;13.90;5.72;;;12.90;99.90;;;;;;5095069;28;20169;-57
2022/01/01 04:18:12;;;;;;;11.20;5.53;;;12.90;99.90;;;;;;5095239;28;20191;-61
2022/01/01 04:20:41;;;;;;;12.30;6.60;;;12.90;99.90;;;;;;5095176;28;20179;-62
2022/01/01 04:23:09;;;;;;;13.57;6.53;;;12.90;99.90;;;;;;5095117;28;20256;-55
2022/01/01 04:25:35;;;;;;;13.77;4.82;;;13.00;99.90;;;;;;5094785;28;20233;-56
2022/01/01 04:28:01;;;;;;;13.50;6.22;;;13.00;99.90;;;;;;5094717;28;20173;-59
2022/01/01 04:30:28;;;;;;;8.98;4.80;;;13.00;99.90;;;;;;5094894;28;20166;-48
2022/01/01 04:32:58;;;;;;;10.45;5.07;;;13.00;99.90;;;;;;5095216;28;20200;-60
2022/01/01 04:35:24;;;;;;;13.43;5.72;;;13.00;99.90;;;;;;5094904;28;20184;-58
2022/01/01 04:37:50;;;;;;;11.77;5.43;;;13.00;99.90;;;;;;5095052;28;20193;-53
2022/01/01 04:40:15;;;;;;;12.32;5.20;;;13.00;99.90;;;;;;5094827;28;20567;-54
2022/01/01 04:42:41;;;;;;;12.95;4.72;;;12.90;99.90;;;;;;5094713;28;20656;-56
2022/01/01 04:45:07;;;;;;;11.60;4.57;;;12.90;99.90;;;;;;5094347;28;20204;-54
2022/01/01 04:47:33;;;;;;;14.15;4.65;;;12.90;99.90;;;;;;5094656;28;20271;-57
2022/01/01 04:49:59;;;;;;;14.88;5.57;;;12.90;99.90;;;;;;5094423;28;20627;-59
2022/01/01 04:52:24;;;;;;;12.63;5.00;;;12.90;99.90;;;;;;5094924;28;20170;-59
2022/01/01 04:54:50;;;;;;;13.32;4.55;;;12.90;99.90;;;;;;5094278;28;20526;-51
2022/01/01 04:57:15;;;;;;;9.07;4.53;;;12.90;99.90;;;;;;5094550;28;20176;-56
2022/01/01 04:59:41;;;;;;;12.48;4.28;;;12.90;99.90;;;;;;5094166;28;20643;-49
2022/01/01 05:02:07;;;;;;;8.50;4.25;;;12.90;99.90;;;;;;5094178;28;20169;-49
2022/01/01 05:04:33;;;;;;;10.02;4.50;;;12.90;99.90;;;;;;5094047;28;20213;-51
2022/01/01 05:06:59;;;;;;;9.98;4.03;;;12.90;99.90;;;;;;5094217;28;20173;-52
2022/01/01 05:09:27;;;;;;;14.43;4.38;;;12.90;99.90;;;;;;5094251;28;20272;-57
2022/01/01 05:11:54;;;;;;;9.68;4.28;;;12.90;99.90;;;;;;5094137;28;20296;-49
2022/01/01 05:14:19;;;;;;;10.00;4.25;;;12.90;99.90;;;;;;5093870;28;20527;-48
2022/01/01 05:16:45;;;;;;;9.90;3.83;;;12.90;99.90;;;;;;5093785;28;20244;-49
2022/01/01 05:19:11;;;;;;;12.57;3.78;;;12.90;99.90;;;;;;5093782;28;20169;-50
2022/01/01 05:21:36;;;;;;;10.60;3.65;;;12.90;99.90;;;;;;5094062;28;20169;-52
2022/01/01 05:24:04;;;;;;;11.18;3.63;;;12.90;99.90;;;;;;5093765;28;20567;-51
2022/01/01 05:26:30;;;;;;;8.65;3.40;;;12.90;99.90;;;;;;5093598;28;20201;-48
2022/01/01 05:28:56;;;;;;;12.15;3.53;;;12.90;99.90;;;;;;5093898;28;20172;-48
2022/01/01 05:31:22;;;;;;;12.63;3.85;;;12.90;99.90;;;;;;5093963;28;20173;-48
2022/01/01 05:33:49;;;;;;;10.55;3.80;;;12.90;99.90;;;;;;5093590;28;20606;-49
2022/01/01 05:36:15;;;;;;;14.65;3.63;;;13.00;99.90;;;;;;5093435;28;20644;-48
2022/01/01 05:38:42;;;;;;;8.43;3.28;;;13.00;99.90;;;;;;5093509;28;20669;-48
2022/01/01 05:41:07;;;;;;;8.80;3.40;;;13.00;99.90;;;;;;5093379;28;20244;-48
2022/01/01 05:43:33;;;;;;;13.70;3.65;;;13.00;99.90;;;;;;5093452;28;20200;-48
2022/01/01 05:45:59;;;;;;;7.25;3.08;;;13.00;99.90;;;;;;5093396;28;20284;-48
2022/01/01 05:48:24;;;;;;;12.25;4.03;;;13.00;99.90;;;;;;5093651;28;20704;-50
2022/01/01 05:50:50;;;;;;;7.28;3.45;;;13.00;99.90;;;;;;5075067;28;20193;-52
2022/01/01 05:53:16;;;;;;;12.63;3.78;;;13.00;99.90;;;;;;5093116;28;20162;-48
2022/01/01 05:55:42;;;;;;;15.88;4.05;;;13.00;99.90;;;;;;5093053;28;20165;-47
2022/01/01 05:58:08;;;;;;;12.10;3.70;;;13.00;99.90;;;;;;5092644;28;20173;-48
2022/01/01 06:00:34;;;;;;;9.45;3.42;;;13.00;99.90;;;;;;5093264;28;20174;-49
2022/01/01 06:03:00;;;;;;;8.90;3.17;;;13.00;99.90;;;;;;5093025;28;20176;-47
2022/01/01 06:05:27;;;;;;;15.20;3.78;;;13.00;99.90;;;;;;5093078;28;20292;-48
2022/01/01 06:07:55;;;;;;;10.73;3.13;;;13.00;99.90;;;;;;5093506;28;20182;-48
2022/01/01 06:10:21;;;;;;;12.55;3.85;;;13.00;99.90;;;;;;5092699;28;20168;-48
2022/01/01 06:12:47;;;;;;;14.65;3.80;;;13.00;99.90;;;;;;5092795;28;20194;-48
2022/01/01 06:15:12;;;;;;;11.00;3.75;;;13.00;99.90;;;;;;5092806;28;20158;-48
2022/01/01 06:17:38;;;;;;;12.77;3.83;;;13.00;99.90;;;;;;5093000;28;20169;-48
2022/01/01 06:20:04;;;;;;;15.73;3.65;;;12.90;99.90;;;;;;5092773;28;20176;-48
2022/01/01 06:22:30;;;;;;;11.63;3.95;;;12.90;99.90;;;;;;5092559;28;20645;-48
2022/01/01 06:24:55;;;;;;;17.15;3.25;;;12.90;99.90;;;;;;5093058;28;20289;-48
2022/01/01 06:27:21;;;;;;;12.50;3.60;;;12.90;99.90;;;;;;5092539;28;20252;-48
2022/01/01 06:29:47;;;;;;;10.25;3.65;;;13.00;99.90;;;;;;5092487;28;20162;-49
2022/01/01 06:32:13;;;;;;;6.25;2.78;;;13.00;99.90;;;;;;5092560;28;20161;-48
2022/01/01 06:34:39;;;;;;;12.48;3.38;;;13.00;99.90;;;;;;5092424;28;20219;-48
2022/01/01 06:37:04;;;;;;;9.60;3.22;;;13.00;99.90;;;;;;5092434;28;20174;-47
2022/01/01 06:39:30;;;;;;;9.07;3.40;;;13.00;99.90;;;;;;5092421;28;20247;-48
2022/01/01 06:41:55;;;;;;;8.20;3.15;;;13.00;99.90;;;;;;5092696;28;20620;-47
2022/01/01 06:44:21;;;;;;;11.05;3.08;;;12.90;99.90;;;;;;5092271;28;20162;-47
2022/01/01 06:46:46;;;;;;;5.15;2.95;;;12.90;99.90;;;;;;5092228;28;20653;-49
2022/01/01 06:49:12;;;;;;;14.75;3.88;;;12.90;99.90;;;;;;5092250;28;20161;-48
2022/01/01 06:51:38;;;;;;;10.32;2.97;;;12.90;99.90;;;;;;5092556;28;20177;-48
2022/01/01 06:54:05;;;;;;;9.27;2.80;;;12.90;99.90;;;;;;5092411;28;20161;-47
2022/01/01 06:56:30;;;;;;;7.35;2.95;;;12.90;99.90;;;;;;5092355;28;20598;-48
2022/01/01 06:58:56;;;;;;;13.10;3.40;;;12.90;99.90;;;;;;5092392;28;20200;-48
2022/01/01 07:01:21;;;;;;;7.00;3.15;;;12.90;99.90;;;;;;5092404;28;20169;-48
2022/01/01 07:03:47;;;;;;;7.97;2.75;;;12.90;99.90;;;;;;5092140;28;20532;-48
2022/01/01 07:06:13;;;;;;;10.25;3.28;;;12.90;99.90;;;;;;5092123;28;20546;-49
2022/01/01 07:08:38;;;;;;;9.45;2.97;;;12.90;99.90;;;;;;5092938;28;20692;-55
2022/01/01 07:11:04;;;;;;;8.85;2.92;;;12.90;99.90;;;;;;5096142;28;20220;-49
2022/01/01 07:13:29;;;;;;;11.68;3.67;;;13.00;99.90;;;;;;5096283;28;20232;-53
2022/01/01 07:15:55;;;;;;;11.27;3.55;;;13.00;99.90;;;;;;5096517;28;20166;-48
2022/01/01 07:18:20;;;;;;;13.98;4.10;;;13.00;99.90;;;;;;5096161;28;20186;-48
2022/01/01 07:20:46;;;;;;;10.40;3.78;;;13.00;99.90;;;;;;5096073;28;20965;-52
2022/01/01 07:23:12;;;;;;;16.55;4.70;;;13.00;99.90;;;;;;5096268;28;20174;-48
2022/01/01 07:25:37;;;;;;;13.70;4.47;;;13.00;99.90;;;;;;5095936;28;20645;-48
2022/01/01 07:28:03;;;;;;;16.17;4.95;;;13.00;99.90;;;;;;5095969;28;20162;-48
2022/01/01 07:30:29;;;;;;;15.75;5.25;;;13.00;99.90;;;;;;5095920;28;20575;-48
2022/01/01 07:32:55;;;;;;;9.40;3.55;;;13.00;99.90;;;;;;5095627;28;20172;-48
2022/01/01 07:35:21;;;;;;;13.55;4.28;;;13.00;99.90;;;;;;5095797;28;20161;-48
2022/01/01 07:37:47;;;;;;;17.33;4.15;;;13.00;99.90;;;;;;5095776;28;20275;-48
2022/01/01 07:40:15;;;;;;;8.68;3.63;;;13.00;99.90;;;;;;5095737;28;20544;-48
2022/01/01 07:42:41;;;;;;;13.10;3.90;;;13.00;99.90;;;;;;5095897;28;20200;-48
2022/01/01 07:45:08;;;;;;;12.05;4.45;;;13.00;99.90;;;;;;5095617;28;20294;-48
2022/01/01 07:47:33;;;;;;;16.85;4.68;;;13.00;99.90;;;;;;5095574;28;20165;-48
2022/01/01 07:49:59;;;;;;;10.40;4.43;;;13.00;99.90;;;;;;5095469;28;20169;-48
2022/01/01 07:52:25;;;;;;;17.48;4.43;;;13.00;99.90;;;;;;5095723;28;20169;-48
2022/01/01 07:54:51;;;;;;;18.30;4.53;;;13.00;99.90;;;;;;5095464;28;20523;-48
2022/01/01 07:57:16;;;;;;;13.32;5.03;;;13.00;99.90;;;;;;5095340;28;20196;-48
2022/01/01 07:59:42;;;;;;;8.32;3.25;;;13.00;99.90;;;;;;5095341;28;20165;-48
2022/01/01 08:02:08;;;;;;;10.35;3.65;;;13.00;99.90;;;;;;5095324;28;20239;-48
2022/01/01 08:04:34;;;;;;;10.15;3.00;;;13.00;99.90;;;;;;5095138;28;20257;-48
2022/01/01 08:07:01;;;;;;;7.03;2.97;;;13.00;99.90;;;;;;5095199;28;20256;-48
2022/01/01 08:09:27;;;;;;;8.02;2.97;;;13.00;99.90;;;;;;5077011;28;20636;-48
2022/01/01 08:11:54;;;;;;;9.32;2.80;;;13.00;99.90;;;;;;5095349;28;20319;-48
2022/01/01 08:14:20;;;;;;;10.45;3.72;;;13.00;99.90;;;;;;5094995;28;20636;-48
2022/01/01 08:17:03;;;;;;;13.90;4.18;;;13.00;99.90;;;;;;5094966;28;20177;-48
2022/01/01 08:19:29;;;;;;;14.35;4.30;;;13.00;99.90;;;;;;5094476;28;20668;-48
2022/01/01 08:21:56;;;;;;;10.38;3.80;;;13.10;99.90;;;;;;5095453;28;20253;-48
2022/01/01 08:24:23;;;;;;;9.18;3.30;;;13.10;99.90;;;;;;5094778;28;20219;-48
2022/01/01 08:26:49;;;;;;;6.75;2.67;;;13.10;99.90;;;;;;5094770;28;20205;-48
2022/01/01 08:29:15;;;;;;;7.25;2.42;;;13.20;99.90;;;;;;5094833;28;20200;-48
2022/01/01 08:31:41;;;;;;;11.30;3.65;;;13.20;99.90;;;;;;5094703;28;20192;-48
2022/01/01 08:34:06;;;;;;;5.60;3.28;;;13.20;99.90;;;;;;5094662;28;20157;-48
2022/01/01 08:36:32;;;;;;;8.68;3.03;;;13.20;99.90;;;;;;5094910;28;20171;-48
2022/01/01 08:38:57;;;;;;;9.13;2.83;;;13.30;99.90;;;;;;5076478;28;20531;-48
2022/01/01 08:41:24;;;;;;;9.25;3.03;;;13.20;99.90;;;;;;5094903;28;20176;-47
2022/01/01 08:43:49;;;;;;;5.85;3.25;;;13.20;99.90;;;;;;5094559;28;20165;-48
2022/01/01 08:46:15;;;;;;;6.13;3.42;;;13.20;99.90;;;;;;5094435;28;20232;-48
2022/01/01 08:48:41;;;;;;;9.88;2.90;;;13.10;99.90;;;;;;5094537;28;20209;-48
2022/01/01 08:51:16;;;;;;;7.38;2.85;;;13.10;99.90;;;;;;5094195;28;20222;-48
2022/01/01 08:53:42;;;;;;;4.30;2.47;;;13.20;99.90;;;;;;5094324;28;20164;-49
2022/01/01 08:56:08;;;;;;;6.72;2.75;;;13.10;99.90;;;;;;5094315;28;20157;-48
2022/01/01 08:58:34;;;;;;;8.63;3.40;;;13.20;99.90;;;;;;5094195;28;20260;-48
2022/01/01 09:01:00;;;;;;;5.65;2.97;;;13.20;99.90;;;;;;5094405;28;20169;-47
2022/01/01 09:03:25;;;;;;;13.85;3.80;;;13.10;99.90;;;;;;5094481;28;20172;-48
2022/01/01 09:05:51;;;;;;;6.35;3.13;;;13.10;99.90;;;;;;5093803;28;20197;-50
2022/01/01 09:08:17;;;;;;;11.98;3.72;;;13.10;99.90;;;;;;5093707;28;20636;-48
2022/01/01 09:10:42;;;;;;;6.35;3.03;;;13.20;99.90;;;;;;5093753;28;20228;-48
2022/01/01 09:13:08;;;;;;;6.82;3.15;;;13.20;99.90;;;;;;5094010;28;20165;-48
2022/01/01 09:15:33;;;;;;;9.13;3.10;;;13.30;99.90;;;;;;5093587;28;20166;-48
2022/01/01 09:17:59;;;;;;;8.63;3.33;;;13.40;99.90;;;;;;5093668;28;20580;-48
2022/01/01 09:20:24;;;;;;;7.53;3.03;;;13.40;99.90;;;;;;5094075;28;20535;-48
2022/01/01 09:22:50;;;;;;;5.78;2.85;;;13.50;99.90;;;;;;5093755;28;20165;-48
2022/01/01 09:25:15;;;;;;;6.25;3.15;;;13.50;99.90;;;;;;5093575;28;20292;-48
2022/01/01 09:27:41;;;;;;;13.48;3.40;;;13.60;99.90;;;;;;5093752;28;20187;-48
2022/01/01 09:30:07;;;;;;;6.57;3.20;;;13.60;99.90;;;;;;5093660;28;20164;-48
2022/01/01 09:32:33;;;;;;;6.72;3.00;;;13.70;99.90;;;;;;5092649;28;20184;-48
2022/01/01 09:35:01;;;;;;;8.88;2.88;;;13.70;99.90;;;;;;5093488;28;20196;-51
2022/01/01 09:37:27;;;;;;;6.05;2.92;;;13.70;99.90;;;;;;5093687;28;20625;-49
2022/01/01 09:39:52;;;;;;;8.60;2.88;;;13.70;99.90;;;;;;5093954;28;20214;-49
2022/01/01 09:42:21;;;;;;;6.80;3.15;;;13.80;99.90;;;;;;5093507;28;20244;-55
2022/01/01 09:44:47;;;;;;;4.50;2.65;;;13.90;99.90;;;;;;5074935;28;20680;-49
2022/01/01 09:47:13;;;;;;;7.03;3.35;;;13.90;99.90;;;;;;5093064;28;20220;-52
2022/01/01 09:49:40;;;;;;;7.55;3.20;;;13.90;99.90;;;;;;5092761;28;20160;-56
2022/01/01 09:52:06;;;;;;;4.55;2.92;;;13.90;99.90;;;;;;5093229;28;20173;-58
2022/01/01 09:54:31;;;;;;;5.72;2.90;;;13.90;99.90;;;;;;5093208;28;20527;-56
2022/01/01 09:56:57;;;;;;;6.50;2.95;;;13.90;99.90;;;;;;5093185;28;20173;-49
2022/01/01 09:59:22;;;;;;;9.15;2.88;;;14.00;99.90;;;;;;5093415;28;20177;-55
2022/01/01 10:01:48;;;;;;;7.63;3.17;;;14.00;99.90;;;;;;5092989;28;20173;-55
2022/01/01 10:04:14;;;;;;;7.28;2.88;;;14.00;99.90;;;;;;5092702;28;20176;-57
2022/01/01 10:06:40;;;;;;;4.72;2.83;;;14.00;99.90;;;;;;5092716;28;20236;-58
2022/01/01 10:09:09;;;;;;;7.63;2.80;;;14.00;99.90;;;;;;5092940;28;20219;-52
2022/01/01 10:11:35;;;;;;;7.07;2.67;;;14.10;99.90;;;;;;5092523;28;20221;-49
2022/01/01 10:14:07;;;;;;;6.40;3.10;;;14.10;99.90;;;;;;5092781;28;20170;-48
2022/01/01 10:16:41;;;;;;;7.85;2.72;;;14.10;99.90;;;;;;5092980;28;20169;-48
2022/01/01 10:19:07;;;;;;;6.60;2.92;;;14.20;99.90;;;;;;5105599;28;20286;-49
2022/01/01 10:21:37;;;;;;;5.32;2.90;;;14.20;99.90;;;;;;5111869;28;20632;-48
2022/01/01 10:24:02;;;;;;;9.32;3.03;;;14.20;99.90;;;;;;5112338;28;20588;-50
2022/01/01 10:29:23;;;;;;;10.07;3.22;;;14.10;99.90;;;;;;5112121;28;20172;-49
2022/01/01 10:32:08;;;;;;;5.53;3.10;;;14.20;99.90;;;;;;5111017;28;20168;-49
2022/01/01 10:34:36;;;;;;;7.97;3.20;;;14.20;99.90;;;;;;5111251;28;20548;-48
2022/01/01 10:37:05;;;;;;;7.47;3.13;;;14.20;99.90;;;;;;5110852;28;20241;-49
2022/01/01 10:39:31;;;;;;;6.25;2.85;;;14.20;99.90;;;;;;5112558;28;20161;-49
2022/01/01 10:41:59;;;;;;;5.88;2.95;;;14.20;99.90;;;;;;5112942;28;20565;-49
2022/01/01 10:44:34;;;;;;;5.32;3.13;;;14.30;99.90;;;;;;5112944;28;20224;-49
2022/01/01 10:47:05;;;;;;;8.70;3.42;;;14.20;99.90;;;;;;5112617;28;20166;-49
2022/01/01 10:49:50;;;;;;;5.75;2.92;;;14.20;99.90;;;;;;5112807;28;20217;-49
2022/01/01 10:52:23;;;;;;;6.40;3.15;;;14.30;99.90;;;;;;5112413;28;20189;-50
2022/01/01 10:54:54;;;;;;;8.07;2.92;;;14.40;99.90;;;;;;5112803;28;20164;-50
2022/01/01 10:57:22;;;;;;;7.65;3.08;;;14.30;99.90;;;;;;5112495;28;20165;-52
2022/01/01 10:59:49;;;;;;;4.82;2.78;;;14.30;99.90;;;;;;5112112;28;20164;-49
2022/01/01 11:02:15;;;;;;;5.78;3.55;;;14.30;99.90;;;;;;5112465;28;20168;-49
2022/01/01 11:04:41;;;;;;;5.78;3.00;;;14.30;99.90;;;;;;5112354;28;20497;-49
2022/01/01 11:07:08;;;;;;;7.88;3.20;;;14.30;99.90;;;;;;5112675;28;20263;-49
2022/01/01 11:09:34;;;;;;;7.35;3.08;;;14.20;99.90;;;;;;5112049;28;20211;-49
2022/01/01 11:12:03;;;;;;;3.95;2.70;;;14.20;99.90;;;;;;5111880;28;20208;-49
2022/01/01 11:14:34;;;;;;;7.22;3.47;;;14.20;99.90;;;;;;5112295;28;20175;-49
2022/01/01 11:17:01;;;;;;;6.38;2.75;;;14.10;99.90;;;;;;5111461;28;20165;-49
2022/01/01 11:19:27;;;;;;;3.95;2.85;;;14.20;99.90;;;;;;5112077;28;20176;-49
2022/01/01 11:21:53;;;;;;;5.30;2.80;;;14.20;99.90;;;;;;5112299;28;20160;-49
2022/01/01 11:24:21;;;;;;;8.48;2.90;;;14.20;99.90;;;;;;5112459;28;20200;-51
2022/01/01 11:26:48;;;;;;;5.35;3.13;;;14.10;99.90;;;;;;5112099;28;20256;-49
2022/01/01 11:29:14;;;;;;;6.88;2.95;;;14.10;99.90;;;;;;5111813;28;20208;-49
2022/01/01 11:31:42;;;;;;;9.60;3.45;;;14.20;99.90;;;;;;5112094;28;20700;-50
2022/01/01 11:34:08;;;;;;;7.28;2.53;;;14.30;99.90;;;;;;5112161;28;20168;-50
2022/01/01 11:36:34;;;;;;;6.50;3.08;;;14.40;99.90;;;;;;5112158;28;20164;-49
2022/01/01 11:39:04;;;;;;;5.43;2.80;;;14.50;99.90;;;;;;5112099;28;20165;-48
2022/01/01 11:41:41;;;;;;;5.35;3.17;;;14.50;99.90;;;;;;5112007;28;20169;-48
2022/01/01 11:44:29;;;;;;;4.57;2.30;;;14.60;99.90;;;;;;5111728;28;20164;-49
2022/01/01 11:47:00;;;;;;;5.65;2.83;;;14.70;99.90;;;;;;5112423;28;20315;-50
2022/01/01 11:49:28;;;;;;;6.45;2.47;;;14.70;99.90;;;;;;5112306;28;20247;-48
2022/01/01 11:51:55;;;;;;;6.05;2.90;;;14.80;99.90;;;;;;5112303;28;20210;-49
2022/01/01 11:54:31;;;;;;;5.00;2.75;;;14.80;99.90;;;;;;5111964;28;20163;-49
2022/01/01 11:57:04;;;;;;;3.58;2.50;;;14.90;99.90;;;;;;5115888;28;20631;-48
2022/01/01 11:59:37;;;;;;;4.30;2.40;;;14.90;99.90;;;;;;5116042;28;20267;-48
2022/01/01 12:02:20;;;;;;;4.57;2.60;;;14.90;99.90;;;;;;5115749;28;20165;-52
2022/01/01 12:04:50;;;;;;;4.38;2.53;;;15.00;99.90;;;;;;5115655;28;20160;-49
2022/01/01 12:07:16;;;;;;;4.25;2.10;;;14.90;99.90;;;;;;5115664;28;20200;-51
2022/01/01 12:09:57;;;;;;;7.43;2.63;;;14.90;99.90;;;;;;5115742;28;20623;-49
2022/01/01 12:12:44;;;;;;;4.70;2.55;;;14.90;99.90;;;;;;5115584;28;20695;-50
2022/01/01 12:15:44;;;;;;;3.63;2.40;;;14.90;99.90;;;;;;5115515;28;20221;-49
2022/01/01 12:18:15;;;;;;;5.90;2.80;;;14.90;99.90;;;;;;5107289;28;20180;-52
2022/01/01 12:21:02;;;;;;;5.53;2.90;;;14.90;99.90;;;;;;5115034;28;20157;-56
2022/01/01 12:23:38;;;;;;;3.88;2.58;;;14.90;99.90;;;;;;5115316;28;20263;-50
2022/01/01 12:26:14;;;;;;;4.70;2.50;;;14.90;99.90;;;;;;5115220;28;20226;-54
2022/01/01 12:28:43;;;;;;;5.55;2.83;;;14.90;99.90;;;;;;5115151;28;20176;-50
2022/01/01 12:31:14;;;;;;;7.78;2.88;;;15.00;99.90;;;;;;5115131;28;20213;-53
2022/01/01 12:33:44;;;;;;;4.68;2.90;;;15.00;99.90;;;;;;5115355;28;20578;-52
2022/01/01 12:36:12;;;;;;;5.25;2.88;;;14.90;99.90;;;;;;5115161;28;20161;-55
2022/01/01 12:38:41;;;;;;;4.55;3.00;;;14.90;99.90;;;;;;5115020;28;20164;-49
2022/01/01 12:41:14;;;;;;;5.65;3.20;;;14.80;99.90;;;;;;5114926;28;20165;-51
2022/01/01 12:43:46;;;;;;;4.55;3.08;;;14.90;99.90;;;;;;5114838;28;20251;-55
2022/01/01 12:46:13;;;;;;;4.90;2.83;;;14.90;99.90;;;;;;5114600;28;20204;-50
2022/01/01 12:48:39;;;;;;;4.28;2.63;;;14.90;99.90;;;;;;5114928;28;20182;-48